Map

Track Data

SID SEASON NUMBER BASIN SUBBASIN NAME ISO_TIME NATURE LAT LON WMO_WIND WMO_PRES WMO_AGENCY TRACK_TYPE DIST2LAND LANDFALL IFLAG USA_AGENCY USA_ATCF_ID USA_LAT USA_LON USA_RECORD USA_STATUS USA_WIND USA_PRES USA_SSHS USA_R34_NE USA_R34_SE USA_R34_SW USA_R34_NW USA_R50_NE USA_R50_SE USA_R50_SW USA_R50_NW USA_R64_NE USA_R64_SE USA_R64_SW USA_R64_NW USA_POCI USA_ROCI USA_RMW USA_EYE TOKYO_LAT TOKYO_LON TOKYO_GRADE TOKYO_WIND TOKYO_PRES TOKYO_R50_DIR TOKYO_R50_LONG TOKYO_R50_SHORT TOKYO_R30_DIR TOKYO_R30_LONG TOKYO_R30_SHORT TOKYO_LAND CMA_LAT CMA_LON CMA_CAT CMA_WIND CMA_PRES HKO_LAT HKO_LON HKO_CAT HKO_WIND HKO_PRES NEWDELHI_LAT NEWDELHI_LON NEWDELHI_GRADE NEWDELHI_WIND NEWDELHI_PRES NEWDELHI_CI NEWDELHI_DP NEWDELHI_POCI REUNION_LAT REUNION_LON REUNION_TYPE REUNION_WIND REUNION_PRES REUNION_TNUM REUNION_CI REUNION_RMW REUNION_R34_NE REUNION_R34_SE REUNION_R34_SW REUNION_R34_NW REUNION_R50_NE REUNION_R50_SE REUNION_R50_SW REUNION_R50_NW REUNION_R64_NE REUNION_R64_SE REUNION_R64_SW REUNION_R64_NW BOM_LAT BOM_LON BOM_TYPE BOM_WIND BOM_PRES BOM_TNUM BOM_CI BOM_RMW BOM_R34_NE BOM_R34_SE BOM_R34_SW BOM_R34_NW BOM_R50_NE BOM_R50_SE BOM_R50_SW BOM_R50_NW BOM_R64_NE BOM_R64_SE BOM_R64_SW BOM_R64_NW BOM_ROCI BOM_POCI BOM_EYE BOM_POS_METHOD BOM_PRES_METHOD NADI_LAT NADI_LON NADI_CAT NADI_WIND NADI_PRES WELLINGTON_LAT WELLINGTON_LON WELLINGTON_WIND WELLINGTON_PRES DS824_LAT DS824_LON DS824_STAGE DS824_WIND DS824_PRES TD9636_LAT TD9636_LON TD9636_STAGE TD9636_WIND TD9636_PRES TD9635_LAT TD9635_LON TD9635_WIND TD9635_PRES TD9635_ROCI NEUMANN_LAT NEUMANN_LON NEUMANN_CLASS NEUMANN_WIND NEUMANN_PRES MLC_LAT MLC_LON MLC_CLASS MLC_WIND MLC_PRES USA_GUST BOM_GUST BOM_GUST_PER REUNION_GUST REUNION_GUST_PER USA_SEAHGT USA_SEARAD_NE USA_SEARAD_SE USA_SEARAD_SW USA_SEARAD_NW STORM_SPEED STORM_DIR
2000060S17123 2000 16 SI WA NORMAN 2000-02-28 22:00:00 NR -17.3000 123.000 25 1000 bom main 0 0 ______O_______ -1 -17.3000 123.000 20 25 1000 2.00000 2.00000 2 4 45 45 6 253
2000060S17123 2000 16 SI WA NORMAN 2000-02-29 00:00:00 NR -17.3605 122.797 main 0 0 ______P_______ -1 -17.3605 122.797 20 26 1000 7 255
2000060S17123 2000 16 SI WA NORMAN 2000-02-29 03:00:00 NR -17.4614 122.388 main 0 0 ______P_______ -1 -17.4614 122.388 20 29 1000 9 256
2000060S17123 2000 16 SI WA NORMAN 2000-02-29 04:00:00 NR -17.5000 122.200 30 1000 bom main 0 0 ______O_______ -1 -17.5000 122.200 20 30 1000 2.50000 2.50000 3 4 45 45 13 259
2000060S17123 2000 16 SI WA NORMAN 2000-02-29 06:00:00 NR -17.5869 121.730 main 42 42 ______P_______ -1 -17.5869 121.730 20 31 998 15 259
2000060S17123 2000 16 SI WA NORMAN 2000-02-29 09:00:00 NR -17.7418 120.888 main 127 127 ______P_______ -1 -17.7418 120.888 20 34 995 16 259
2000060S17123 2000 16 SI WA NORMAN 2000-02-29 10:00:00 NR -17.8000 120.600 35 995 bom main 146 146 ______O_______ -1 -17.8000 120.600 30 35 995 3.00000 3.00000 3 5 49 49 21 247
2000060S17123 2000 16 SI WA NORMAN 2000-02-29 12:00:00 TS -18.1503 119.897 main 187 183 O_____P_____O_ jtwc_sh SH162000 -18.6000 119.600 TD 25 -1 -17.9254 120.045 30 36 993 -18.6000 119.600 TC 25 18 244
2000060S17123 2000 16 SI WA NORMAN 2000-02-29 15:00:00 TS -18.4428 119.198 main 189 178 P_____P_____P_ SH162000 -18.7548 119.153 TD 25 -1 -18.1307 119.244 30 39 990 -18.7548 119.153 TC 25 14 245
2000060S17123 2000 16 SI WA NORMAN 2000-02-29 16:00:00 TS -18.5525 118.991 40 990 bom main 168 168 P_____O_____P_ SH162000 -18.7875 118.986 TD 25 -1 -18.2000 119.000 30 40 990 3.00000 3.00000 377 3 5 -18.7875 118.986 TC 25 55 55 12 250
2000060S17123 2000 16 SI WA NORMAN 2000-02-29 18:00:00 TS -18.6516 118.586 main 165 165 O_____P_____O_ jtwc_sh SH162000 -18.8000 118.600 TD 25 -1 -18.3547 118.558 30 43 988 -18.8000 118.600 TC 25 12 265
2000060S17123 2000 16 SI WA NORMAN 2000-02-29 21:00:00 TS -18.6339 117.921 main 202 202 P_____P_____P_ SH162000 -18.6729 117.892 TD 25 -1 -18.5560 117.978 30 48 985 -18.6729 117.892 TC 25 13 273
2000060S17123 2000 16 SI WA NORMAN 2000-02-29 22:00:00 TS -18.6078 117.699 50 985 bom main 205 205 P_____O_____P_ SH162000 -18.6117 117.648 TD 25 -1 -18.6000 117.800 30 50 985 3.50000 3.50000 3 5 -18.6117 117.648 TC 25 69 69 12 279
2000060S17123 2000 16 SI WA NORMAN 2000-03-01 00:00:00 TS -18.5420 117.284 main 228 228 O_____P_____O_ jtwc_sh SH162000 -18.5000 117.200 TD 25 -1 -18.6259 117.451 30 51 983 -18.5000 117.200 TC 25 10 278
2000060S17123 2000 16 SI WA NORMAN 2000-03-01 03:00:00 TS -18.4913 116.791 main 234 234 P_____P_____P_ SH162000 -18.4346 116.705 TD 30 -1 -18.6047 116.961 30 54 980 -18.4346 116.705 TC 30 9 276
2000060S17123 2000 16 SI WA NORMAN 2000-03-01 04:00:00 TS -18.4814 116.643 55 980 bom main 235 235 P_____O_____P_ SH162000 -18.4222 116.565 TD 31 -1 -18.6000 116.800 30 55 980 4.00000 4.00000 3 5 -18.4222 116.565 TC 31 75 75 8 272
2000060S17123 2000 16 SI WA NORMAN 2000-03-01 06:00:00 TS -18.4787 116.354 main 236 236 O_____P_____O_ jtwc_sh SH162000 -18.4000 116.300 TS 35 0 -18.6362 116.461 30 56 978 -18.4000 116.300 TC 35 8 272
2000060S17123 2000 16 SI WA NORMAN 2000-03-01 09:00:00 TS -18.4539 115.915 main 249 249 P_____P_____P_ SH162000 -18.3349 115.892 TS 40 0 -18.6921 115.961 30 59 975 -18.3349 115.892 TC 40 8 274
2000060S17123 2000 16 SI WA NORMAN 2000-03-01 10:00:00 TS -18.4449 115.774 60 975 bom main 263 263 P_____O_____P_ SH162000 -18.3174 115.761 TS 41 0 -18.7000 115.800 30 60 975 4.00000 4.00000 3 5 -18.3174 115.761 TC 41 84 84 8 274
2000060S17123 2000 16 SI WA NORMAN 2000-03-01 12:00:00 TS -18.4238 115.501 main 276 276 O_____P_____O_ jtwc_sh SH162000 -18.3000 115.500 TS 45 0 -18.6714 115.503 30 63 971 -18.3000 115.500 TC 45 8 273
2000060S17123 2000 16 SI WA NORMAN 2000-03-01 15:00:00 TS -18.4166 115.101 main 297 297 P_____P_____P_ SH162000 -18.3198 115.122 TS 50 0 -18.6103 115.059 30 68 966 -18.3198 115.122 TC 50 8 270
2000060S17123 2000 16 SI WA NORMAN 2000-03-01 16:00:00 TS -18.4265 114.960 70 965 bom main 303 303 P_____O_____P_ SH162000 -18.3398 114.990 TS 51 0 -18.6000 114.900 40 70 965 4.50000 4.50000 3 5 -18.3398 114.990 TC 51 99 99 9 263
2000060S17123 2000 16 SI WA NORMAN 2000-03-01 18:00:00 TS -18.4707 114.648 main 316 316 O_____P_____O_ jtwc_sh SH162000 -18.4000 114.700 TS 55 0 -18.6121 114.544 40 71 963 -18.4000 114.700 TC 55 10 259
2000060S17123 2000 16 SI WA NORMAN 2000-03-01 21:00:00 TS -18.5807 114.119 main 337 337 P_____P_____P_ SH162000 -18.5349 114.188 TS 60 0 -18.6724 113.983 40 74 960 -18.5349 114.188 TC 60 10 257
2000060S17123 2000 16 SI WA NORMAN 2000-03-01 22:00:00 TS -18.6260 113.933 75 960 bom main 349 346 P_____O_____P_ SH162000 -18.5890 113.999 TS 61 0 -18.7000 113.800 40 75 960 4.50000 4.50000 3 5 -18.5890 113.999 TC 61 104 104 11 256
2000060S17123 2000 16 SI WA NORMAN 2000-03-02 00:00:00 TS -18.7177 113.558 main 360 352 O_____P_____O_ jtwc_sh SH162000 -18.7000 113.600 TY 65 1 -18.7530 113.475 40 76 958 -18.7000 113.600 TC 65 11 256
2000060S17123 2000 16 SI WA NORMAN 2000-03-02 03:00:00 TS -18.8525 112.980 main 351 351 P_____P_____P_ SH162000 -18.8498 112.980 TY 65 1 -18.8581 112.981 40 79 955 -18.8498 112.980 TC 65 11 256
2000060S17123 2000 16 SI WA NORMAN 2000-03-02 04:00:00 TS -18.8998 112.773 80 955 bom main 358 358 P_____O_____P_ SH162000 -18.8998 112.760 TY 65 1 -18.9000 112.800 40 80 955 5.00000 5.00000 3 5 -18.8998 112.760 TC 65 110 110 13 257
2000060S17123 2000 16 SI WA NORMAN 2000-03-02 06:00:00 TS -18.9973 112.336 main 369 369 O_____P_____O_ jtwc_sh SH162000 -19.0000 112.300 TY 65 1 -18.9919 112.407 40 83 953 -19.0000 112.300 TC 65 13 257
2000060S17123 2000 16 SI WA NORMAN 2000-03-02 09:00:00 TS -19.1540 111.619 main 391 391 P_____P_____P_ SH162000 -19.1575 111.558 TY 67 1 -19.1472 111.742 40 88 950 -19.1575 111.558 TC 67 14 257
2000060S17123 2000 16 SI WA NORMAN 2000-03-02 10:00:00 TS -19.2052 111.369 90 950 bom main 405 405 P_____O_____P_ SH162000 -19.2079 111.303 TY 68 1 -19.2000 111.500 40 90 950 5.50000 5.50000 13 4 5 -19.2079 111.303 TC 68 124 124 15 258
2000060S17123 2000 16 SI WA NORMAN 2000-03-02 12:00:00 TS -19.3018 110.865 main 434 434 O_____P_____O_ jtwc_sh SH162000 -19.3000 110.800 TY 70 1 -19.3053 110.996 40 93 946 -19.3000 110.800 TC 70 14 259
2000060S17123 2000 16 SI WA NORMAN 2000-03-02 15:00:00 TS -19.4282 110.132 main 492 492 P_____P_____P_ SH162000 -19.4145 110.107 TY 82 1 -19.4556 110.180 40 98 941 -19.4145 110.107 TC 82 14 260
2000060S17123 2000 16 SI WA NORMAN 2000-03-02 16:00:00 TS -19.4641 109.885 100 940 bom main 503 503 P_____O_____P_ SH162000 -19.4462 109.877 TY 86 2 -19.5000 109.900 40 100 940 6.00000 6.00000 13 4 5 -19.4462 109.877 TC 86 139 139 14 262
2000060S17123 2000 16 SI WA NORMAN 2000-03-02 18:00:00 TS -19.5285 109.373 main 548 548 O_____P_____O_ jtwc_sh SH162000 -19.5000 109.400 TY 95 2 -19.5855 109.320 40 103 936 -19.5000 109.400 TC 95 15 264
2000060S17123 2000 16 SI WA NORMAN 2000-03-02 21:00:00 TS -19.5985 108.564 main 617 617 P_____P_____P_ SH162000 -19.5573 108.615 TY 102 3 -19.6808 108.463 40 108 931 -19.5573 108.615 TC 102 15 265
2000060S17123 2000 16 SI WA NORMAN 2000-03-02 22:00:00 TS -19.6146 108.296 110 930 bom main 643 643 P_____O_____P_ SH162000 -19.5719 108.344 TY 105 3 -19.7000 108.200 40 110 930 6.50000 6.50000 13 4 5 -19.5719 108.344 TC 105 154 154 15 267
2000060S17123 2000 16 SI WA NORMAN 2000-03-03 00:00:00 TS -19.6328 107.789 main 688 688 O_____P_____O_ jtwc_sh SH162000 -19.6000 107.800 TY 110 3 -19.6985 107.767 40 110 936 -19.6000 107.800 TC 110 14 268
2000060S17123 2000 16 SI WA NORMAN 2000-03-03 03:00:00 TS -19.6521 107.061 main 747 747 P_____P_____P_ SH162000 -19.6343 107.022 TY 115 4 -19.6875 107.140 40 110 946 -19.6343 107.022 TC 115 14 268
2000060S17123 2000 16 SI WA NORMAN 2000-03-03 04:00:00 TS -19.6668 106.804 110 950 bom main 775 775 P_____O_____P_ SH162000 -19.6503 106.757 TY 116 4 -19.7000 106.900 40 110 950 6.00000 6.50000 13 4 5 -19.6503 106.757 TC 116 154 154 16 264
2000060S17123 2000 16 SI WA NORMAN 2000-03-03 06:00:00 TS -19.7309 106.240 main 832 832 O_____P_____O_ jtwc_sh SH162000 -19.7000 106.200 TY 120 4 -19.7926 106.320 40 106 954 -19.7000 106.200 TC 120 17 261
2000060S17123 2000 16 SI WA NORMAN 2000-03-03 09:00:00 TS -19.8813 105.295 main 911 911 P_____P_____P_ SH162000 -19.8423 105.273 TY 117 4 -19.9592 105.338 40 101 962 -19.8423 105.273 TC 117 18 261
2000060S17123 2000 16 SI WA NORMAN 2000-03-03 10:00:00 TS -19.9312 104.967 100 965 bom main 940 940 P_____O_____P_ SH162000 -19.8969 104.950 TY 116 4 -20.0000 105.000 40 100 965 5.50000 6.00000 13 4 5 -19.8969 104.950 TC 116 139 139 19 263
2000060S17123 2000 16 SI WA NORMAN 2000-03-03 12:00:00 TS -20.0024 104.310 main 1005 1005 O_____P_____O_ jtwc_sh SH162000 -20.0000 104.300 TY 115 4 -20.0072 104.330 40 96 965 -20.0000 104.300 TC 115 19 265
2000060S17123 2000 16 SI WA NORMAN 2000-03-03 15:00:00 TS -20.0734 103.326 main 1102 1102 P_____P_____P_ SH162000 -20.1148 103.327 TY 115 4 -19.9906 103.324 40 91 965 -20.1148 103.327 TC 115 18 266
2000060S17123 2000 16 SI WA NORMAN 2000-03-03 16:00:00 TS -20.0977 103.006 90 965 bom main 1132 1132 P_____O_____P_ SH162000 -20.1465 103.010 TY 115 4 -20.0000 103.000 40 90 965 5.00000 5.50000 13 4 5 -20.1465 103.010 TC 115 124 124 18 264
2000060S17123 2000 16 SI WA NORMAN 2000-03-03 18:00:00 TS -20.1621 102.397 main 1189 1189 O_____P_____O_ jtwc_sh SH162000 -20.2000 102.400 TY 115 4 -20.0864 102.390 40 86 965 -20.2000 102.400 TC 115 17 263
2000060S17123 2000 16 SI WA NORMAN 2000-03-03 21:00:00 TS -20.2606 101.547 main 1277 1277 P_____P_____P_ SH162000 -20.2644 101.570 TY 110 3 -20.2531 101.501 40 81 965 -20.2644 101.570 TC 110 16 263
2000060S17123 2000 16 SI WA NORMAN 2000-03-03 22:00:00 TS -20.2863 101.273 80 965 bom main 1297 1297 P_____O_____P_ SH162000 -20.2795 101.309 TY 108 3 -20.3000 101.200 40 80 965 4.50000 5.00000 13 4 5 -20.2795 101.309 TC 108 110 110 16 266
2000060S17123 2000 16 SI WA NORMAN 2000-03-04 00:00:00 TS -20.3182 100.718 main 1358 1358 O_____P_____O_ jtwc_sh SH162000 -20.3000 100.800 TY 105 3 -20.3546 100.553 40 73 968 -20.3000 100.800 TC 105 16 268
2000060S17123 2000 16 SI WA NORMAN 2000-03-04 03:00:00 TS -20.3262 99.8886 main 1440 1440 P_____P_____P_ SH162000 -20.2922 100.035 TY 105 3 -20.3943 99.5964 40 63 973 -20.2922 100.035 TC 105 15 270
2000060S17123 2000 16 SI WA NORMAN 2000-03-04 04:00:00 TS -20.3262 99.6243 60 975 bom main 1470 1470 P_____O_____P_ SH162000 -20.2894 99.7864 TY 105 3 -20.4000 99.3000 30 60 975 3.50000 4.00000 13 4 5 -20.2894 99.7864 TC 105 84 84 14 269
2000060S17123 2000 16 SI WA NORMAN 2000-03-04 06:00:00 TS -20.3358 99.1173 main 1521 1521 O_____P_____O_ jtwc_sh SH162000 -20.3000 99.3000 TY 105 3 -20.4074 98.7520 30 58 976 -20.3000 99.3000 TC 105 14 266
2000060S17123 2000 16 SI WA NORMAN 2000-03-04 09:00:00 TS -20.4007 98.3927 main 1590 1590 P_____P_____P_ SH162000 -20.3998 98.5778 TY 105 3 -20.4024 98.0223 30 55 979 -20.3998 98.5778 TC 105 13 264
2000060S17123 2000 16 SI WA NORMAN 2000-03-04 10:00:00 TS -20.4254 98.1638 55 980 bom main 1610 1610 P_____O_____P_ SH162000 -20.4381 98.3457 TY 105 3 -20.4000 97.8000 30 55 980 4.00000 4 5 -20.4381 98.3457 TC 105 75 75 13 264
2000060S17123 2000 16 SI WA NORMAN 2000-03-04 12:00:00 TS -20.4683 97.7255 main 1659 1659 O_____P_____O_ jtwc_sh SH162000 -20.5000 97.9000 TY 105 3 -20.4050 97.3764 30 55 980 -20.5000 97.9000 TC 105 12 267
2000060S17123 2000 16 SI WA NORMAN 2000-03-04 15:00:00 TS -20.4783 97.1156 main 1721 1721 P_____P_____P_ SH162000 -20.5147 97.2773 TY 97 3 -20.4055 96.7922 30 55 980 -20.5147 97.2773 TC 97 11 270
2000060S17123 2000 16 SI WA NORMAN 2000-03-04 16:00:00 TS -20.4737 96.9207 55 980 bom main 1741 1741 P_____O_____P_ SH162000 -20.5106 97.0811 TY 94 2 -20.4000 96.6000 30 55 980 4.00000 4 5 -20.5106 97.0811 TC 94 75 75 11 272
2000060S17123 2000 16 SI WA NORMAN 2000-03-04 18:00:00 TS -20.4546 96.5260 main 1782 1782 O_____P_____O_ jtwc_sh SH162000 -20.5000 96.7000 TY 90 2 -20.3637 96.1781 30 55 980 -20.5000 96.7000 TC 90 11 272
2000060S17123 2000 16 SI WA NORMAN 2000-03-04 21:00:00 TS -20.4409 95.9391 main 1823 1823 P_____P_____P_ SH162000 -20.5074 96.1201 TY 82 1 -20.3079 95.5771 30 55 980 -20.5074 96.1201 TC 82 11 271
2000060S17123 2000 16 SI WA NORMAN 2000-03-04 22:00:00 TS -20.4386 95.7584 55 980 bom main 1829 1829 P_____O_____P_ SH162000 -20.5079 95.9376 TY 79 1 -20.3000 95.4000 30 55 980 4.00000 4 5 -20.5079 95.9376 TC 79 75 75 10 270
2000060S17123 2000 16 SI WA NORMAN 2000-03-05 00:00:00 TS -20.4373 95.4321 main 1853 1853 O_____P_____O_ jtwc_sh SH162000 -20.5000 95.6000 TY 75 1 -20.3118 95.0964 30 55 980 -20.5000 95.6000 TC 75 8 271
2000060S17123 2000 16 SI WA NORMAN 2000-03-05 03:00:00 TS -20.4239 95.0240 main 1878 1878 P_____P_____P_ SH162000 -20.4497 95.1774 TY 70 1 -20.3723 94.7171 30 55 980 -20.4497 95.1774 TC 70 7 272
2000060S17123 2000 16 SI WA NORMAN 2000-03-05 04:00:00 TS -20.4204 94.9002 55 980 bom main 1884 1884 P_____O_____P_ SH162000 -20.4306 95.0503 TY 68 1 -20.4000 94.6000 30 55 980 4.00000 4 5 -20.4306 95.0503 TC 68 75 75 7 270
2000060S17123 2000 16 SI WA NORMAN 2000-03-05 06:00:00 TS -20.4232 94.6512 main 1897 1897 O_____P_____O_ jtwc_sh SH162000 -20.4000 94.8000 TY 65 1 -20.4696 94.3534 30 55 980 -20.4000 94.8000 TC 65 7 267
2000060S17123 2000 16 SI WA NORMAN 2000-03-05 09:00:00 TS -20.4534 94.2695 main 1932 1932 P_____P_____P_ SH162000 -20.3924 94.4001 TY 65 1 -20.5754 94.0084 30 55 980 -20.3924 94.4001 TC 65 7 265
2000060S17123 2000 16 SI WA NORMAN 2000-03-05 10:00:00 TS -20.4630 94.1445 55 980 bom main 1945 1945 P_____O_____P_ SH162000 -20.3945 94.2667 TY 65 1 -20.6000 93.9000 30 55 980 4.00000 4 5 -20.3945 94.2667 TC 65 75 75 7 267
2000060S17123 2000 16 SI WA NORMAN 2000-03-05 12:00:00 TS -20.4701 93.8955 main 1958 1958 O_____P_____O_ jtwc_sh SH162000 -20.4000 94.0000 TY 65 1 -20.6103 93.6866 30 55 980 -20.4000 94.0000 TC 65 7 270
2000060S17123 2000 16 SI WA NORMAN 2000-03-05 15:00:00 TS -20.4616 93.5105 main 1985 1985 P_____P_____P_ SH162000 -20.3926 93.5700 TY 65 1 -20.5995 93.3916 30 55 980 -20.3926 93.5700 TC 65 7 271
2000060S17123 2000 16 SI WA NORMAN 2000-03-05 16:00:00 TS -20.4614 93.3900 55 980 bom main 1992 1992 P_____O_____P_ SH162000 -20.3922 93.4350 TY 65 1 -20.6000 93.3000 30 55 980 4.00000 4 5 -20.3922 93.4350 TC 65 75 75 6 268
2000060S17123 2000 16 SI WA NORMAN 2000-03-05 18:00:00 TS -20.4751 93.1770 main 2006 2006 O_____P_____O_ jtwc_sh SH162000 -20.4000 93.2000 TY 65 1 -20.6253 93.1309 30 55 980 -20.4000 93.2000 TC 65 5 262
2000060S17123 2000 16 SI WA NORMAN 2000-03-05 21:00:00 TS -20.5168 92.9421 main 2027 2027 P_____P_____P_ SH162000 -20.4348 92.9700 TY 65 1 -20.6807 92.8864 30 55 980 -20.4348 92.9700 TC 65 4 258
2000060S17123 2000 16 SI WA NORMAN 2000-03-05 22:00:00 TS -20.5355 92.8744 55 980 bom main 2027 2027 P_____O_____P_ SH162000 -20.4532 92.9116 TY 65 1 -20.7000 92.8000 30 55 980 4.00000 4 5 -20.4532 92.9116 TC 65 75 75 4 255
2000060S17123 2000 16 SI WA NORMAN 2000-03-06 00:00:00 TS -20.5706 92.7287 main 2049 2049 O_____P_____O_ jtwc_sh SH162000 -20.5000 92.8000 TY 65 1 -20.7117 92.5861 30 55 980 -20.5000 92.8000 TC 65 4 253
2000060S17123 2000 16 SI WA NORMAN 2000-03-06 03:00:00 TS -20.6435 92.4932 main 2063 2063 P_____P_____P_ SH162000 -20.5850 92.6000 TY 65 1 -20.7605 92.2798 30 55 980 -20.5850 92.6000 TC 65 5 249
2000060S17123 2000 16 SI WA NORMAN 2000-03-06 04:00:00 TS -20.6800 92.4222 55 980 bom main 2079 2079 P_____O_____P_ SH162000 -20.6200 92.5333 TY 65 1 -20.8000 92.2000 30 55 980 4.00000 4 5 -20.6200 92.5333 TC 65 75 75 5 234
2000060S17123 2000 16 SI WA NORMAN 2000-03-06 06:00:00 TS -20.7783 92.2988 main 2094 2094 O_____P_____O_ jtwc_sh SH162000 -20.7000 92.4000 TY 65 1 -20.9350 92.0963 30 55 980 -20.7000 92.4000 TC 65 4 228
2000060S17123 2000 16 SI WA NORMAN 2000-03-06 09:00:00 TS -20.9287 92.1290 main 2116 2116 P_____P_____P_ SH162000 -20.7900 92.1849 TY 65 1 -21.2061 92.0171 30 55 980 -20.7900 92.1849 TC 65 4 224
2000060S17123 2000 16 SI WA NORMAN 2000-03-06 10:00:00 TS -20.9929 92.0783 55 980 bom main 2125 2125 P_____O_____P_ SH162000 -20.8393 92.1174 TY 65 1 -21.3000 92.0000 30 55 980 4.00000 4 5 -20.8393 92.1174 TC 65 75 75 5 211
2000060S17123 2000 16 SI WA NORMAN 2000-03-06 12:00:00 TS -21.1519 91.9916 main 2148 2148 O_____P_____O_ jtwc_sh SH162000 -21.0000 92.0000 TY 65 1 -21.4558 91.9749 30 55 980 -21.0000 92.0000 TC 65 7 197
2000060S17123 2000 16 SI WA NORMAN 2000-03-06 15:00:00 TS -21.5584 91.8954 main 2188 2188 P_____P_____P_ SH162000 -21.4850 91.8776 TY 65 1 -21.7052 91.9310 30 55 980 -21.4850 91.8776 TC 65 9 192
2000060S17123 2000 16 SI WA NORMAN 2000-03-06 16:00:00 TS -21.7121 91.8653 55 980 bom main 2196 2196 P_____O_____P_ SH162000 -21.6681 91.8480 TY 65 1 -21.8000 91.9000 30 55 980 4.00000 3 5 -21.6681 91.8480 TC 65 75 75 9 192
2000060S17123 2000 16 SI WA NORMAN 2000-03-06 18:00:00 TS -22.0077 91.7878 main 2220 2218 O_____P_____O_ jtwc_sh SH162000 -22.0000 91.8000 TY 65 1 -22.0231 91.7635 30 53 981 -22.0000 91.8000 TC 65 8 196
2000060S17123 2000 16 SI WA NORMAN 2000-03-06 21:00:00 TS -22.3146 91.6770 main 2224 2222 P_____P_____P_ SH162000 -22.2800 91.7424 TY 65 1 -22.3839 91.5462 30 50 984 -22.2800 91.7424 TC 65 6 197
2000060S17123 2000 16 SI WA NORMAN 2000-03-06 22:00:00 TS -22.4017 91.6519 50 985 bom main 2222 2222 P_____O_____P_ SH162000 -22.3526 91.7278 TY 65 1 -22.5000 91.5000 30 50 985 3.50000 3 5 -22.3526 91.7278 TC 65 69 69 5 187
2000060S17123 2000 16 SI WA NORMAN 2000-03-07 00:00:00 TS -22.5693 91.6294 main 2228 2223 O_____P_____O_ jtwc_sh SH162000 -22.5000 91.7000 TY 65 1 -22.7079 91.4882 30 50 985 -22.5000 91.7000 TC 65 6 188
2000060S17123 2000 16 SI WA NORMAN 2000-03-07 03:00:00 TS -22.8625 91.5917 main 2220 2220 P_____P_____P_ SH162000 -22.7924 91.6053 TY 62 0 -23.0026 91.5644 30 50 985 -22.7924 91.6053 TC 62 6 186
2000060S17123 2000 16 SI WA NORMAN 2000-03-07 04:00:00 TS -22.9630 91.5908 50 985 bom main 2217 2212 P_____O_____P_ SH162000 -22.8945 91.5862 TY 61 0 -23.1000 91.6000 30 50 985 3.50000 3 5 -22.8945 91.5862 TC 61 69 69 6 176
2000060S17123 2000 16 SI WA NORMAN 2000-03-07 06:00:00 TS -23.1757 91.6196 main 2212 2185 O_____P_____O_ jtwc_sh SH162000 -23.1000 91.6000 TS 60 0 -23.3272 91.6587 30 50 985 -23.1000 91.6000 TC 60 7 161
2000060S17123 2000 16 SI WA NORMAN 2000-03-07 09:00:00 TS -23.4962 91.7861 main 2185 2183 P_____P_____P_ SH162000 -23.4300 91.7972 TS 62 0 -23.6286 91.7640 30 50 985 -23.4300 91.7972 TC 62 7 152
2000060S17123 2000 16 SI WA NORMAN 2000-03-07 10:00:00 TS -23.5878 91.8617 50 985 bom main 2173 2161 P_____O_____P_ SH162000 -23.5316 91.8926 TS 63 0 -23.7000 91.8000 30 50 985 3.50000 3 5 -23.5316 91.8926 TC 63 69 69 6 137
2000060S17123 2000 16 SI WA NORMAN 2000-03-07 12:00:00 TS -23.7243 92.0223 main 2161 2128 O_____P_____O_ jtwc_sh SH162000 -23.7000 92.1000 TY 65 1 -23.7728 91.8668 30 46 986 -23.7000 92.1000 TC 65 5 121
2000060S17123 2000 16 SI WA NORMAN 2000-03-07 15:00:00 TS -23.8189 92.2806 main 2128 2128 P_____P_____P_ SH162000 -23.8301 92.4376 TY 62 0 -23.7964 91.9667 30 41 989 -23.8301 92.4376 TC 62 5 110
2000060S17123 2000 16 SI WA NORMAN 2000-03-07 16:00:00 TS -23.8368 92.3614 40 990 bom main 2118 2106 P_____O_____P_ SH162000 -23.8552 92.5421 TY 61 0 -23.8000 92.0000 30 40 990 3.00000 3 5 -23.8552 92.5421 TC 61 55 55 4 107
2000060S17123 2000 16 SI WA NORMAN 2000-03-07 18:00:00 TS -23.8778 92.4871 main 2106 2094 O_____P_____O_ jtwc_sh SH162000 -23.9000 92.7000 TS 60 0 -23.8333 92.0612 30 38 991 -23.9000 92.7000 TC 60 3 129
2000060S17123 2000 16 SI WA NORMAN 2000-03-07 21:00:00 TS -23.9810 92.5604 main 2094 2094 P_____P_____P_ SH162000 -24.0299 92.7601 TS 57 0 -23.8833 92.1610 30 35 994 -24.0299 92.7601 TC 57 2 153
2000060S17123 2000 16 SI WA NORMAN 2000-03-07 22:00:00 TS -24.0099 92.5657 35 995 bom main 2094 2094 P_____O_____P_ SH162000 -24.0649 92.7485 TS 56 0 -23.9000 92.2000 30 35 995 3.00000 3 5 -24.0649 92.7485 TC 56 49 49 1 168
2000060S17123 2000 16 SI WA NORMAN 2000-03-08 00:00:00 TS -24.0481 92.5640 main 2094 2094 O_____P_____O_ jtwc_sh SH162000 -24.1000 92.7000 TS 55 0 -23.9442 92.2921 30 35 995 -24.1000 92.7000 TC 55 0 265
2000060S17123 2000 16 SI WA NORMAN 2000-03-08 03:00:00 TS -24.0132 92.5240 main 2104 2104 P_____P_____P_ SH162000 -24.0225 92.5624 TS 50 0 -23.9948 92.4473 30 35 995 -24.0225 92.5624 TC 50 1 333
2000060S17123 2000 16 SI WA NORMAN 2000-03-08 04:00:00 TS -23.9870 92.5147 35 995 bom main 2104 2104 P_____O_____P_ SH162000 -23.9805 92.5221 TS 48 0 -24.0000 92.5000 30 35 995 3.00000 3 5 -23.9805 92.5221 TC 48 49 49 2 14
2000060S17123 2000 16 SI WA NORMAN 2000-03-08 06:00:00 TS -23.9275 92.5424 main 2106 2086 O_____P_____O_ jtwc_sh SH162000 -23.9000 92.5000 TS 45 0 -23.9825 92.6272 30 35 995 -23.9000 92.5000 TC 45 3 53
2000060S17123 2000 16 SI WA NORMAN 2000-03-08 09:00:00 TS -23.8589 92.7046 main 2086 2079 P_____P_____P_ SH162000 -23.8274 92.6677 TS 37 0 -23.9219 92.7786 30 35 995 -23.8274 92.6677 TC 37 3 68
2000060S17123 2000 16 SI WA NORMAN 2000-03-08 10:00:00 TS -23.8413 92.7759 35 995 bom main 2079 2069 P_____O_____P_ SH162000 -23.8120 92.7638 TS 34 0 -23.9000 92.8000 30 35 995 3.00000 3 5 -23.8120 92.7638 TC 34 49 49 4 80
2000060S17123 2000 16 SI WA NORMAN 2000-03-08 12:00:00 TS -23.8222 92.9261 main 2069 2049 O_____P_____O_ jtwc_sh SH162000 -23.8000 93.0000 TD 30 -1 -23.8666 92.7783 30 31 996 -23.8000 93.0000 TC 30 4 87
2000060S17123 2000 16 SI WA NORMAN 2000-03-08 15:00:00 TS -23.8264 93.1172 main 2049 2049 P_____P_____P_ SH162000 -23.8328 93.4273 TD 27 -1 -23.8167 92.6522 30 26 999 -23.8328 93.4273 TC 27 2 92
2000060S17123 2000 16 SI WA NORMAN 2000-03-08 16:00:00 TS -23.8266 93.0910 25 1000 bom main 2049 2049 P_____O_____P_ SH162000 -23.8532 93.5820 TD 26 -1 -23.8000 92.6000 20 25 1000 2.00000 3 5 -23.8532 93.5820 TC 26 45 45 3 278
2000060S17123 2000 16 SI WA NORMAN 2000-03-08 18:00:00 TS -23.8075 92.9756 main 2059 2059 O_____P_____O_ jtwc_sh SH162000 -23.9000 93.9000 TD 25 -1 -23.7612 92.5133 20 25 1000 -23.9000 93.9000 TC 25 8 280
2000060S17123 2000 16 SI WA NORMAN 2000-03-08 21:00:00 NR -23.7109 92.3583 main 2121 2121 ______P_______ SH162000 TD -1 -23.7109 92.3583 20 25 1000 TC 9 280
2000060S17123 2000 16 SI WA NORMAN 2000-03-08 22:00:00 NR -23.7000 92.3000 25 1000 bom main 2131 2131 ______O_______ SH162000 TD -1 -23.7000 92.3000 20 25 1000 2.00000 3 5 TC 45 45 2 274
2000060S17123 2000 16 SI WA NORMAN 2000-03-09 00:00:00 NR -23.7025 92.2290 main 2141 2141 ______P_______ -1 -23.7025 92.2290 20 25 1000 3 268
2000060S17123 2000 16 SI WA NORMAN 2000-03-09 03:00:00 NR -23.7084 92.0265 main 2161 2161 ______P_______ -1 -23.7084 92.0265 20 25 1000 5 270
2000060S17123 2000 16 SI WA NORMAN 2000-03-09 04:00:00 NR -23.7000 91.9000 25 1000 bom main 2171 2171 ______O_______ -1 -23.7000 91.9000 20 25 1000 2.00000 3 5 45 45 10 276
2000060S17123 2000 16 SI WA NORMAN 2000-03-09 06:00:00 NR -23.6555 91.4741 main 2210 2210 ______P_______ -1 -23.6555 91.4741 20 25 1000 13 278
2000060S17123 2000 16 SI WA NORMAN 2000-03-09 09:00:00 NR -23.5448 90.7195 main 2295 2295 ______P_______ -1 -23.5448 90.7195 20 25 1000 14 280
2000060S17123 2000 16 SI WA NORMAN 2000-03-09 10:00:00 NR -23.5000 90.5000 25 1000 bom main 2315 2315 ______O_______ -1 -23.5000 90.5000 20 25 1000 2.00000 3 5 45 45 9 289
2000060S17123 2000 16 SI WA NORMAN 2000-03-09 12:00:00 NR -23.4014 90.2605 main 2337 2337 ______P_______ -1 -23.4014 90.2605 20 25 1000 7 297
2000060S17123 2000 16 SI MM NORMAN 2000-03-09 15:00:00 NR -23.2463 89.9498 main 2382 2382 ______P_______ -1 -23.2463 89.9498 20 25 1000 7 295
2000060S17123 2000 16 SI MM NORMAN 2000-03-09 16:00:00 NR -23.2000 89.8000 main 2392 2392 ______O_______ -1 -23.2000 89.8000 20 25 1000 2.00000 3 5 45 45 13 281
2000060S17123 2000 16 SI MM NORMAN 2000-03-09 18:00:00 NR -23.1267 89.2725 main 2444 2444 ______P_______ -1 -23.1267 89.2725 20 23 1001 15 278
2000060S17123 2000 16 SI MM NORMAN 2000-03-09 21:00:00 NR -23.0314 88.4217 main 2536 2536 ______P_______ -1 -23.0314 88.4217 20 20 1004 15 277
2000060S17123 2000 16 SI MM NORMAN 2000-03-09 22:00:00 NR -23.0000 88.2000 main 2556 2556 ______O_______ -1 -23.0000 88.2000 20 20 1005 1.00000 3 5 45 45 9 282
2000060S17123 2000 16 SI MM NORMAN 2000-03-10 00:00:00 NR -22.9349 87.9261 main 2584 2584 ______P_______ -1 -22.9349 87.9261 20 20 1005 5 295
2000060S17123 2000 16 SI MM NORMAN 2000-03-10 03:00:00 NR -22.8340 87.8052 main 2584 2584 ______P_______ -1 -22.8340 87.8052 20 20 1005 3 318
2000060S17123 2000 16 SI MM NORMAN 2000-03-10 04:00:00 NR -22.8000 87.8000 main 2584 ______O_______ -1 -22.8000 87.8000 20 20 1005 1.00000 3 5 45 45 2 329

About IBTrACS Database

This database is a web-friendly format of International Best Track Archive for Climate Stewardship (IBTrACS), a global best track data archive curated by NOAA dating back to 1842.

Updated: 2021-12-06